createdAt,value
2018-10-02T00:00:37.387Z,889.53
2018-10-02T00:01:37.371Z,889.57
2018-10-02T00:02:37.351Z,889.54
2018-10-02T00:03:37.345Z,889.52
2018-10-02T00:04:37.328Z,889.54
2018-10-02T00:05:37.313Z,889.50
2018-10-02T00:06:37.295Z,889.48
2018-10-02T00:07:37.277Z,889.48
2018-10-02T00:08:37.269Z,889.50
2018-10-02T00:09:37.257Z,889.49
2018-10-02T00:10:37.240Z,889.53
2018-10-02T00:11:37.223Z,889.49
2018-10-02T00:12:37.204Z,889.47
2018-10-02T00:13:37.195Z,889.51
2018-10-02T00:14:37.177Z,889.51
2018-10-02T00:15:37.164Z,889.52
2018-10-02T00:16:37.148Z,889.53
2018-10-02T00:17:37.136Z,889.54
2018-10-02T00:18:37.120Z,889.56
2018-10-02T00:19:37.106Z,889.54
2018-10-02T00:20:37.089Z,889.51
2018-10-02T00:21:37.080Z,889.51
2018-10-02T00:22:37.064Z,889.51
2018-10-02T00:23:37.046Z,889.49
2018-10-02T00:24:37.033Z,889.48
2018-10-02T00:25:37.016Z,889.49
2018-10-02T00:26:37.005Z,889.52
2018-10-02T00:27:36.991Z,889.47
2018-10-02T00:28:36.972Z,889.51
2018-10-02T00:29:36.959Z,889.51
2018-10-02T00:30:36.947Z,889.52
2018-10-02T00:31:37.030Z,889.53
2018-10-02T00:32:36.911Z,889.53
2018-10-02T00:33:36.902Z,889.51
2018-10-02T00:34:36.886Z,889.54
2018-10-02T00:35:36.874Z,889.55
2018-10-02T00:36:36.856Z,889.60
2018-10-02T00:37:36.843Z,889.54
2018-10-02T00:38:36.831Z,889.57
2018-10-02T00:39:36.813Z,889.52
2018-10-02T00:40:36.797Z,889.57
2018-10-02T00:41:36.782Z,889.55
2018-10-02T00:42:36.767Z,889.54
2018-10-02T00:43:36.755Z,889.55
2018-10-02T00:44:36.740Z,889.51
2018-10-02T00:45:36.742Z,889.50
2018-10-02T00:46:36.710Z,889.49
2018-10-02T00:47:36.695Z,889.53
2018-10-02T00:48:36.679Z,889.52
2018-10-02T00:49:36.665Z,889.50
2018-10-02T00:50:36.647Z,889.48
2018-10-02T00:51:36.638Z,889.46
2018-10-02T00:52:36.621Z,889.47
2018-10-02T00:53:36.605Z,889.47
2018-10-02T00:54:36.597Z,889.44
2018-10-02T00:55:36.577Z,889.48
2018-10-02T00:56:36.561Z,889.44
2018-10-02T00:57:36.553Z,889.43
2018-10-02T00:58:36.536Z,889.42
2018-10-02T00:59:36.519Z,889.43
2018-10-02T01:00:36.513Z,889.42
2018-10-02T01:01:36.492Z,889.40
2018-10-02T01:02:36.468Z,889.38
2018-10-02T01:03:36.461Z,889.37
2018-10-02T01:04:36.450Z,889.37
2018-10-02T01:05:36.429Z,889.35
2018-10-02T01:06:36.415Z,889.32
2018-10-02T01:07:36.400Z,889.34
2018-10-02T01:08:36.382Z,889.30
2018-10-02T01:09:36.370Z,889.30
2018-10-02T01:10:36.354Z,889.28
2018-10-02T01:11:36.345Z,889.30
2018-10-02T01:12:36.322Z,889.34
2018-10-02T01:13:36.305Z,889.36
2018-10-02T01:14:36.296Z,889.36
2018-10-02T01:15:36.279Z,889.35
2018-10-02T01:16:36.265Z,889.40
2018-10-02T01:17:36.250Z,889.36
2018-10-02T01:18:36.236Z,889.37
2018-10-02T01:19:36.222Z,889.41
2018-10-02T01:20:36.210Z,889.39
2018-10-02T01:21:36.189Z,889.41
2018-10-02T01:22:36.175Z,889.43
2018-10-02T01:23:36.165Z,889.45
2018-10-02T01:24:36.149Z,889.47
2018-10-02T01:25:36.131Z,889.43
2018-10-02T01:26:36.122Z,889.45
2018-10-02T01:27:36.106Z,889.47
2018-10-02T01:28:36.089Z,889.48
2018-10-02T01:29:36.072Z,889.47
2018-10-02T01:30:36.062Z,889.47
2018-10-02T01:31:36.046Z,889.43
2018-10-02T01:32:36.036Z,889.48
2018-10-02T01:33:36.015Z,889.42
2018-10-02T01:34:36.001Z,889.44
2018-10-02T01:35:35.976Z,889.47
2018-10-02T01:36:35.975Z,889.49
2018-10-02T01:37:35.955Z,889.50
2018-10-02T01:38:35.935Z,889.49
2018-10-02T01:39:35.925Z,889.49
2018-10-02T01:40:35.905Z,889.48
2018-10-02T01:41:35.893Z,889.46
2018-10-02T01:42:35.888Z,889.49
2018-10-02T01:43:35.868Z,889.53
2018-10-02T01:44:35.849Z,889.50
2018-10-02T01:45:35.837Z,889.49
2018-10-02T01:46:35.816Z,889.47
2018-10-02T01:47:35.806Z,889.46
2018-10-02T01:48:35.794Z,889.46
2018-10-02T01:49:35.775Z,889.47
2018-10-02T01:50:35.767Z,889.49
2018-10-02T01:51:35.747Z,889.48
2018-10-02T01:52:35.729Z,889.53
2018-10-02T01:53:35.717Z,889.49
2018-10-02T01:54:35.698Z,889.53
2018-10-02T01:55:35.684Z,889.50
2018-10-02T01:56:35.670Z,889.48
2018-10-02T01:57:35.654Z,889.50
2018-10-02T01:58:35.637Z,889.48
2018-10-02T01:59:35.626Z,889.50
2018-10-02T02:00:35.616Z,889.52
2018-10-02T02:01:35.597Z,889.49
2018-10-02T02:02:35.580Z,889.51
2018-10-02T02:03:35.565Z,889.51
2018-10-02T02:04:35.560Z,889.53
2018-10-02T02:05:35.537Z,889.55
2018-10-02T02:06:35.518Z,889.56
2018-10-02T02:07:35.508Z,889.55
2018-10-02T02:08:35.496Z,889.57
2018-10-02T02:09:35.477Z,889.57
2018-10-02T02:10:35.458Z,889.61
2018-10-02T02:11:35.448Z,889.58
2018-10-02T02:12:35.430Z,889.57
2018-10-02T02:13:35.415Z,889.60
2018-10-02T02:14:35.400Z,889.63
2018-10-02T02:15:35.384Z,889.65
2018-10-02T02:16:35.373Z,889.64
2018-10-02T02:17:35.361Z,889.62
2018-10-02T02:18:35.341Z,889.64
2018-10-02T02:19:35.324Z,889.64
2018-10-02T02:20:35.313Z,889.60
2018-10-02T02:21:35.299Z,889.63
2018-10-02T02:22:35.284Z,889.66
2018-10-02T02:23:35.264Z,889.57
2018-10-02T02:24:35.251Z,889.59
2018-10-02T02:25:35.242Z,889.58
2018-10-02T02:26:35.227Z,889.60
2018-10-02T02:27:35.211Z,889.61
2018-10-02T02:28:35.198Z,889.59
2018-10-02T02:29:35.181Z,889.61
2018-10-02T02:30:35.169Z,889.69
2018-10-02T02:31:35.152Z,889.70
2018-10-02T02:32:35.136Z,889.73
2018-10-02T02:33:35.116Z,889.74
2018-10-02T02:34:35.104Z,889.76
2018-10-02T02:35:35.091Z,889.76
2018-10-02T02:36:35.072Z,889.78
2018-10-02T02:37:35.059Z,889.78
2018-10-02T02:38:35.049Z,889.78
2018-10-02T02:39:35.031Z,889.76
2018-10-02T02:40:35.017Z,889.79
2018-10-02T02:41:35.005Z,889.77
2018-10-02T02:42:34.985Z,889.75
2018-10-02T02:43:34.973Z,889.80
2018-10-02T02:44:34.957Z,889.79
2018-10-02T02:45:34.952Z,889.82
2018-10-02T02:46:34.927Z,889.83
2018-10-02T02:47:34.912Z,889.84
2018-10-02T02:48:34.895Z,889.83
2018-10-02T02:49:34.879Z,889.86
2018-10-02T02:50:34.869Z,889.86
2018-10-02T02:51:34.849Z,889.86
2018-10-02T02:52:34.880Z,889.88
2018-10-02T02:53:34.822Z,889.89
2018-10-02T02:54:34.803Z,889.91
2018-10-02T02:55:34.791Z,889.87
2018-10-02T02:56:34.776Z,889.90
2018-10-02T02:57:34.760Z,889.90
2018-10-02T02:58:34.746Z,889.89
2018-10-02T02:59:34.734Z,889.88
2018-10-02T03:00:34.716Z,889.86
2018-10-02T03:01:34.702Z,889.88
2018-10-02T03:02:34.688Z,889.92
2018-10-02T03:03:34.675Z,889.86
2018-10-02T03:04:34.660Z,889.85
2018-10-02T03:05:34.645Z,889.86
2018-10-02T03:06:34.625Z,889.88
2018-10-02T03:07:34.611Z,889.90
2018-10-02T03:08:34.598Z,889.90
2018-10-02T03:09:34.593Z,889.91
2018-10-02T03:10:34.569Z,889.92
2018-10-02T03:11:34.558Z,889.94
2018-10-02T03:12:34.536Z,889.95
2018-10-02T03:13:34.525Z,889.92
2018-10-02T03:14:34.503Z,889.92
2018-10-02T03:15:34.492Z,889.90
2018-10-02T03:16:34.483Z,889.92
2018-10-02T03:17:34.458Z,889.93
2018-10-02T03:18:34.451Z,889.96
2018-10-02T03:19:34.435Z,889.97
2018-10-02T03:20:34.413Z,889.96
2018-10-02T03:21:34.444Z,889.98
2018-10-02T03:22:34.388Z,889.95
2018-10-02T03:23:34.374Z,890.00
2018-10-02T03:24:34.359Z,890.00
2018-10-02T03:25:34.348Z,890.01
2018-10-02T03:26:34.328Z,890.04
2018-10-02T03:27:34.309Z,890.07
2018-10-02T03:28:34.298Z,890.06
2018-10-02T03:29:34.279Z,890.06
2018-10-02T03:30:34.279Z,890.10
2018-10-02T03:31:34.256Z,890.11
2018-10-02T03:32:34.240Z,890.10
2018-10-02T03:33:34.222Z,890.12
2018-10-02T03:34:34.205Z,890.10
2018-10-02T03:35:34.196Z,890.08
2018-10-02T03:36:34.175Z,890.09
2018-10-02T03:37:34.165Z,890.13
2018-10-02T03:38:34.147Z,890.15
2018-10-02T03:39:34.176Z,890.18
2018-10-02T03:40:34.121Z,890.20
2018-10-02T03:41:34.100Z,890.20
2018-10-02T03:42:34.090Z,890.24
2018-10-02T03:43:34.077Z,890.23
2018-10-02T03:44:34.061Z,890.28
2018-10-02T03:45:34.041Z,890.27
2018-10-02T03:46:34.030Z,890.28
2018-10-02T03:47:34.021Z,890.32
2018-10-02T03:48:33.996Z,890.29
2018-10-02T03:49:33.983Z,890.31
2018-10-02T03:50:33.972Z,890.32
2018-10-02T03:51:33.953Z,890.28
2018-10-02T03:52:33.938Z,890.32
2018-10-02T03:53:33.921Z,890.33
2018-10-02T03:54:33.903Z,890.33
2018-10-02T03:55:33.889Z,890.31
2018-10-02T03:56:33.876Z,890.31
2018-10-02T03:57:33.858Z,890.35
2018-10-02T03:58:33.846Z,890.33
2018-10-02T03:59:33.832Z,890.35
2018-10-02T04:00:33.815Z,890.30
2018-10-02T04:01:33.800Z,890.30
2018-10-02T04:02:33.784Z,890.29
2018-10-02T04:03:33.817Z,890.29
2018-10-02T04:04:33.763Z,890.29
2018-10-02T04:05:33.741Z,890.26
2018-10-02T04:06:33.724Z,890.26
2018-10-02T04:07:33.711Z,890.30
2018-10-02T04:08:33.693Z,890.30
2018-10-02T04:09:33.680Z,890.28
2018-10-02T04:10:33.668Z,890.29
2018-10-02T04:11:33.655Z,890.32
2018-10-02T04:12:33.636Z,890.34
2018-10-02T04:13:33.627Z,890.34
2018-10-02T04:14:33.604Z,890.32
2018-10-02T04:15:33.588Z,890.36
2018-10-02T04:16:33.575Z,890.35
2018-10-02T04:17:33.567Z,890.33
2018-10-02T04:18:33.545Z,890.29
2018-10-02T04:19:33.531Z,890.35
2018-10-02T04:20:33.537Z,890.35
2018-10-02T04:21:33.500Z,890.37
2018-10-02T04:22:33.488Z,890.36
2018-10-02T04:23:33.466Z,890.37
2018-10-02T04:24:33.457Z,890.34
2018-10-02T04:25:33.437Z,890.39
2018-10-02T04:26:33.428Z,890.41
2018-10-02T04:27:33.410Z,890.42
2018-10-02T04:28:33.397Z,890.42
2018-10-02T04:29:33.381Z,890.42
2018-10-02T04:30:33.360Z,890.43
2018-10-02T04:31:33.346Z,890.46
2018-10-02T04:32:33.335Z,890.45
2018-10-02T04:33:33.413Z,890.49
2018-10-02T04:34:33.304Z,890.50
2018-10-02T04:35:33.289Z,890.49
2018-10-02T04:36:33.277Z,890.53
2018-10-02T04:37:33.256Z,890.51
2018-10-02T04:38:33.247Z,890.52
2018-10-02T04:39:33.313Z,890.51
2018-10-02T04:40:33.221Z,890.49
2018-10-02T04:41:33.196Z,890.50
2018-10-02T04:42:33.180Z,890.55
2018-10-02T04:43:33.169Z,890.56
2018-10-02T04:44:33.149Z,890.60
2018-10-02T04:45:33.138Z,890.56
2018-10-02T04:46:33.126Z,890.62
2018-10-02T04:47:33.106Z,890.60
2018-10-02T04:48:33.096Z,890.60
2018-10-02T04:49:33.079Z,890.61
2018-10-02T04:50:33.061Z,890.63
2018-10-02T04:51:33.045Z,890.65
2018-10-02T04:52:33.029Z,890.62
2018-10-02T04:53:33.013Z,890.64
2018-10-02T04:54:33.001Z,890.56
2018-10-02T04:55:32.985Z,890.60
2018-10-02T04:56:32.981Z,890.59
2018-10-02T04:57:32.956Z,890.62
2018-10-02T04:58:32.940Z,890.58
2018-10-02T04:59:32.920Z,890.62
2018-10-02T05:00:32.912Z,890.60
2018-10-02T05:01:32.891Z,890.60
2018-10-02T05:02:32.878Z,890.65
2018-10-02T05:03:32.864Z,890.65
2018-10-02T05:04:34.528Z,890.66
2018-10-02T05:05:32.831Z,890.70
2018-10-02T05:06:32.815Z,890.72
2018-10-02T05:07:32.801Z,890.71
2018-10-02T05:08:32.831Z,890.70
2018-10-02T05:09:32.769Z,890.67
2018-10-02T05:10:32.764Z,890.72
2018-10-02T05:11:32.735Z,890.71
2018-10-02T05:12:32.724Z,890.76
2018-10-02T05:13:32.708Z,890.73
2018-10-02T05:14:32.694Z,890.75
2018-10-02T05:15:32.682Z,890.76
2018-10-02T05:16:32.662Z,890.76
2018-10-02T05:17:32.651Z,890.81
2018-10-02T05:18:32.635Z,890.81
2018-10-02T05:19:32.617Z,890.80
2018-10-02T05:20:32.616Z,890.81
2018-10-02T05:21:32.587Z,890.85
2018-10-02T05:22:32.573Z,890.81
2018-10-02T05:23:32.557Z,890.82
2018-10-02T05:24:32.541Z,890.85
2018-10-02T05:25:32.524Z,890.86
2018-10-02T05:26:32.507Z,890.89
2018-10-02T05:27:32.542Z,890.89
2018-10-02T05:28:32.479Z,890.87
2018-10-02T05:29:32.466Z,890.89
2018-10-02T05:30:32.449Z,890.91
2018-10-02T05:31:32.440Z,890.92
2018-10-02T05:32:32.425Z,890.94
2018-10-02T05:33:32.421Z,890.93
2018-10-02T05:34:32.389Z,890.95
2018-10-02T05:35:32.448Z,890.94
2018-10-02T05:36:32.359Z,890.93
2018-10-02T05:37:32.346Z,890.93
2018-10-02T05:38:32.330Z,890.95
2018-10-02T05:39:32.314Z,890.96
2018-10-02T05:40:32.298Z,891.01
2018-10-02T05:41:32.287Z,890.97
2018-10-02T05:42:32.309Z,891.01
2018-10-02T05:43:32.252Z,891.03
2018-10-02T05:44:32.237Z,891.08
2018-10-02T05:45:32.226Z,891.11
2018-10-02T05:46:32.210Z,891.14
2018-10-02T05:47:32.188Z,891.14
2018-10-02T05:48:32.176Z,891.13
2018-10-02T05:49:32.190Z,891.20
2018-10-02T05:50:32.157Z,891.19
2018-10-02T05:51:32.133Z,891.16
2018-10-02T05:52:32.118Z,891.15
2018-10-02T05:53:32.103Z,891.18
2018-10-02T05:54:32.087Z,891.15
2018-10-02T05:55:32.071Z,891.17
2018-10-02T05:56:32.056Z,891.19
2018-10-02T05:57:32.040Z,891.19
2018-10-02T05:58:32.100Z,891.16
2018-10-02T05:59:32.012Z,891.21
2018-10-02T06:00:31.995Z,891.20
2018-10-02T06:01:31.984Z,891.22
2018-10-02T06:02:31.973Z,891.23
2018-10-02T06:03:31.949Z,891.24
2018-10-02T06:04:31.939Z,891.25
2018-10-02T06:05:31.923Z,891.29
2018-10-02T06:06:31.908Z,891.27
2018-10-02T06:07:31.892Z,891.29
2018-10-02T06:08:31.873Z,891.31
2018-10-02T06:09:31.860Z,891.33
2018-10-02T06:10:31.850Z,891.38
2018-10-02T06:11:31.830Z,891.36
2018-10-02T06:12:31.818Z,891.41
2018-10-02T06:13:31.798Z,891.43
2018-10-02T06:14:31.788Z,891.43
2018-10-02T06:15:31.769Z,891.45
2018-10-02T06:16:31.755Z,891.42
2018-10-02T06:17:31.743Z,891.45
2018-10-02T06:18:31.743Z,891.45
2018-10-02T06:19:31.714Z,891.47
2018-10-02T06:20:31.695Z,891.48
2018-10-02T06:21:31.678Z,891.50
2018-10-02T06:22:31.668Z,891.52
2018-10-02T06:23:31.650Z,891.56
2018-10-02T06:24:31.642Z,891.59
2018-10-02T06:25:31.622Z,891.59
2018-10-02T06:26:31.606Z,891.61
2018-10-02T06:27:31.588Z,891.66
2018-10-02T06:28:31.571Z,891.62
2018-10-02T06:29:31.558Z,891.69
2018-10-02T06:30:31.596Z,891.70
2018-10-02T06:31:31.530Z,891.70
2018-10-02T06:32:31.538Z,891.73
2018-10-02T06:33:31.497Z,891.71
2018-10-02T06:34:31.480Z,891.71
2018-10-02T06:35:31.471Z,891.72
2018-10-02T06:36:31.460Z,891.76
2018-10-02T06:37:31.436Z,891.77
2018-10-02T06:38:31.607Z,891.82
2018-10-02T06:39:31.411Z,891.79
2018-10-02T06:40:31.400Z,891.81
2018-10-02T06:41:31.379Z,891.82
2018-10-02T06:42:31.386Z,891.84
2018-10-02T06:43:31.406Z,891.78
2018-10-02T06:44:31.349Z,891.77
2018-10-02T06:45:31.319Z,891.79
2018-10-02T06:46:31.302Z,891.77
2018-10-02T06:47:31.286Z,891.78
2018-10-02T06:48:31.277Z,891.79
2018-10-02T06:49:31.271Z,891.77
2018-10-02T06:50:31.285Z,891.78
2018-10-02T06:51:31.293Z,891.79
2018-10-02T06:52:31.510Z,891.75
2018-10-02T06:53:31.204Z,891.79
2018-10-02T06:54:31.188Z,891.80
2018-10-02T06:55:31.170Z,891.78
2018-10-02T06:56:31.213Z,891.76
2018-10-02T06:57:31.137Z,891.74
2018-10-02T06:58:31.118Z,891.76
2018-10-02T06:59:31.109Z,891.74
2018-10-02T07:00:31.147Z,891.75
2018-10-02T07:01:31.082Z,891.77
2018-10-02T07:02:31.065Z,891.77
2018-10-02T07:03:31.051Z,891.79
2018-10-02T07:04:31.036Z,891.79
2018-10-02T07:05:31.019Z,891.83
2018-10-02T07:06:31.008Z,891.85
2018-10-02T07:07:30.990Z,891.84
2018-10-02T07:08:30.973Z,891.82
2018-10-02T07:09:30.961Z,891.86
2018-10-02T07:10:30.953Z,891.84
2018-10-02T07:11:30.929Z,891.86
2018-10-02T07:12:30.922Z,891.88
2018-10-02T07:13:30.896Z,891.91
2018-10-02T07:14:30.933Z,891.92
2018-10-02T07:15:30.872Z,891.95
2018-10-02T07:16:30.858Z,891.94
2018-10-02T07:17:30.891Z,891.92
2018-10-02T07:18:30.824Z,891.93
2018-10-02T07:19:30.812Z,891.93
2018-10-02T07:20:30.839Z,891.94
2018-10-02T07:21:30.779Z,891.93
2018-10-02T07:22:30.767Z,891.95
2018-10-02T07:23:30.751Z,891.93
2018-10-02T07:24:30.734Z,891.94
2018-10-02T07:25:30.711Z,891.94
2018-10-02T07:26:30.724Z,891.97
2018-10-02T07:27:30.853Z,891.97
2018-10-02T07:28:30.750Z,892.00
2018-10-02T07:29:30.667Z,892.01
2018-10-02T07:30:30.692Z,892.01
2018-10-02T07:31:30.639Z,892.01
2018-10-02T07:32:30.658Z,891.97
2018-10-02T07:33:30.606Z,892.01
2018-10-02T07:34:30.588Z,892.04
2018-10-02T07:35:30.576Z,892.08
2018-10-02T07:36:30.623Z,892.07
2018-10-02T07:37:30.543Z,892.08
2018-10-02T07:38:30.538Z,892.09
2018-10-02T07:39:30.511Z,892.07
2018-10-02T07:40:30.504Z,892.08
2018-10-02T07:41:30.488Z,892.06
2018-10-02T07:42:30.625Z,892.06
2018-10-02T07:43:30.455Z,892.06
2018-10-02T07:44:30.487Z,892.10
2018-10-02T07:45:30.430Z,892.08
2018-10-02T07:46:30.414Z,892.12
2018-10-02T07:47:30.433Z,892.10
2018-10-02T07:48:30.473Z,892.14
2018-10-02T07:49:30.375Z,892.11
2018-10-02T07:50:30.385Z,892.14
2018-10-02T07:51:30.348Z,892.17
2018-10-02T07:52:30.327Z,892.16
2018-10-02T07:53:30.324Z,892.17
2018-10-02T07:54:30.298Z,892.21
2018-10-02T07:55:30.350Z,892.22
2018-10-02T07:56:30.292Z,892.20
2018-10-02T07:57:30.254Z,892.23
2018-10-02T07:58:30.243Z,892.22
2018-10-02T07:59:30.236Z,892.19
2018-10-02T08:00:30.216Z,892.19
2018-10-02T08:01:30.199Z,892.17
2018-10-02T08:02:30.230Z,892.19
2018-10-02T08:03:30.165Z,892.19
2018-10-02T08:04:30.153Z,892.26
2018-10-02T08:05:30.167Z,892.26
2018-10-02T08:06:30.126Z,892.30
2018-10-02T08:07:30.110Z,892.29
2018-10-02T08:08:30.139Z,892.32
2018-10-02T08:09:30.084Z,892.34
2018-10-02T08:10:30.071Z,892.36
2018-10-02T08:11:30.072Z,892.37
2018-10-02T08:12:30.162Z,892.38
2018-10-02T08:13:30.073Z,892.42
2018-10-02T08:14:30.038Z,892.42
2018-10-02T08:15:30.006Z,892.46
2018-10-02T08:16:29.985Z,892.41
2018-10-02T08:17:30.034Z,892.43
2018-10-02T08:18:29.956Z,892.40
2018-10-02T08:19:29.945Z,892.45
2018-10-02T08:20:29.986Z,892.48
2018-10-02T08:21:29.916Z,892.47
2018-10-02T08:22:29.901Z,892.48
2018-10-02T08:23:29.919Z,892.45
2018-10-02T08:24:29.876Z,892.44
2018-10-02T08:25:29.858Z,892.41
2018-10-02T08:26:29.867Z,892.39
2018-10-02T08:27:29.830Z,892.41
2018-10-02T08:28:29.821Z,892.43
2018-10-02T08:29:29.898Z,892.39
2018-10-02T08:30:29.788Z,892.41
2018-10-02T08:31:29.775Z,892.42
2018-10-02T08:32:29.810Z,892.46
2018-10-02T08:33:29.742Z,892.47
2018-10-02T08:34:29.733Z,892.48
2018-10-02T08:35:29.775Z,892.48
2018-10-02T08:36:29.776Z,892.43
2018-10-02T08:37:29.687Z,892.43
2018-10-02T08:38:29.709Z,892.42
2018-10-02T08:39:29.661Z,892.49
2018-10-02T08:40:29.653Z,892.50
2018-10-02T08:41:29.633Z,892.46
2018-10-02T08:42:29.618Z,892.47
2018-10-02T08:43:29.692Z,892.50
2018-10-02T08:44:29.646Z,892.46
2018-10-02T08:45:29.572Z,892.46
2018-10-02T08:46:29.563Z,892.47
2018-10-02T08:47:29.598Z,892.50
2018-10-02T08:48:29.535Z,892.50
2018-10-02T08:49:29.518Z,892.47
2018-10-02T08:50:29.542Z,892.43
2018-10-02T08:51:29.492Z,892.42
2018-10-02T08:52:29.475Z,892.42
2018-10-02T08:53:29.476Z,892.42
2018-10-02T08:54:29.451Z,892.42
2018-10-02T08:55:29.438Z,892.43
2018-10-02T08:56:29.421Z,892.44
2018-10-02T08:57:29.412Z,892.43
2018-10-02T08:58:29.395Z,892.41
2018-10-02T08:59:29.386Z,892.44
2018-10-02T09:00:29.376Z,892.40
2018-10-02T09:01:29.361Z,892.46
2018-10-02T09:02:29.342Z,892.43
2018-10-02T09:03:29.330Z,892.41
2018-10-02T09:04:29.314Z,892.44
2018-10-02T09:05:29.310Z,892.45
2018-10-02T09:06:29.317Z,892.47
2018-10-02T09:07:29.276Z,892.40
2018-10-02T09:08:29.260Z,892.39
2018-10-02T09:09:29.245Z,892.45
2018-10-02T09:10:29.236Z,892.46
2018-10-02T09:11:29.219Z,892.43
2018-10-02T09:12:29.231Z,892.50
2018-10-02T09:13:29.194Z,892.48
2018-10-02T09:14:29.178Z,892.48
2018-10-02T09:15:29.239Z,892.47
2018-10-02T09:16:29.244Z,892.40
2018-10-02T09:17:29.147Z,892.37
2018-10-02T09:18:29.190Z,892.40
2018-10-02T09:19:29.121Z,892.45
2018-10-02T09:20:29.106Z,892.50
2018-10-02T09:21:29.152Z,892.49
2018-10-02T09:22:29.079Z,892.49
2018-10-02T09:23:29.066Z,892.49
2018-10-02T09:24:29.095Z,892.55
2018-10-02T09:25:29.041Z,892.52
2018-10-02T09:26:29.027Z,892.55
2018-10-02T09:27:29.052Z,892.56
2018-10-02T09:28:29.028Z,892.55
2018-10-02T09:29:28.986Z,892.59
2018-10-02T09:30:29.070Z,892.61
2018-10-02T09:31:28.960Z,892.57
2018-10-02T09:32:28.946Z,892.61
2018-10-02T09:33:28.952Z,892.67
2018-10-02T09:34:28.921Z,892.70
2018-10-02T09:35:28.908Z,892.66
2018-10-02T09:36:28.918Z,892.68
2018-10-02T09:37:28.993Z,892.72
2018-10-02T09:38:28.867Z,892.73
2018-10-02T09:39:28.894Z,892.71
2018-10-02T09:40:28.845Z,892.73
2018-10-02T09:41:28.829Z,892.70
2018-10-02T09:42:28.866Z,892.69
2018-10-02T09:43:28.850Z,892.69
2018-10-02T09:44:28.787Z,892.67
2018-10-02T09:45:28.817Z,892.67
2018-10-02T09:46:28.764Z,892.68
2018-10-02T09:47:28.744Z,892.69
2018-10-02T09:48:28.767Z,892.71
2018-10-02T09:49:28.721Z,892.75
2018-10-02T09:50:28.756Z,892.79
2018-10-02T09:51:28.693Z,892.82
2018-10-02T09:52:28.680Z,892.84
2018-10-02T09:53:28.666Z,892.92
2018-10-02T09:54:28.705Z,892.92
2018-10-02T09:55:28.638Z,892.93
2018-10-02T09:56:28.651Z,892.95
2018-10-02T09:57:28.614Z,892.94
2018-10-02T09:58:28.612Z,892.97
2018-10-02T09:59:28.585Z,892.93
2018-10-02T10:00:28.625Z,892.99
2018-10-02T10:01:28.564Z,892.96
2018-10-02T10:02:28.620Z,892.96
2018-10-02T10:03:28.536Z,893.03
2018-10-02T10:04:28.523Z,893.01
2018-10-02T10:05:28.506Z,892.96
2018-10-02T10:06:28.489Z,892.99
2018-10-02T10:07:28.484Z,892.94
2018-10-02T10:08:28.468Z,892.87
2018-10-02T10:09:28.461Z,892.87
2018-10-02T10:10:28.466Z,892.89
2018-10-02T10:11:28.432Z,892.88
2018-10-02T10:12:28.421Z,892.84
2018-10-02T10:13:28.407Z,892.87
2018-10-02T10:14:28.395Z,892.88
2018-10-02T10:15:28.386Z,892.88
2018-10-02T10:16:28.381Z,892.92
2018-10-02T10:17:28.443Z,892.91
2018-10-02T10:18:28.347Z,892.95
2018-10-02T10:19:28.333Z,892.96
2018-10-02T10:20:28.319Z,892.95
2018-10-02T10:21:28.312Z,892.95
2018-10-02T10:22:28.361Z,892.96
2018-10-02T10:23:28.291Z,892.92
2018-10-02T10:24:28.274Z,892.91
2018-10-02T10:25:28.261Z,892.94
2018-10-02T10:26:28.273Z,892.88
2018-10-02T10:27:28.232Z,892.93
2018-10-02T10:28:28.255Z,892.90
2018-10-02T10:29:28.210Z,892.87
2018-10-02T10:30:28.203Z,892.90
2018-10-02T10:31:28.188Z,892.87
2018-10-02T10:32:28.177Z,892.93
2018-10-02T10:33:28.229Z,892.91
2018-10-02T10:34:28.189Z,892.90
2018-10-02T10:35:28.146Z,892.88
2018-10-02T10:36:28.127Z,892.82
2018-10-02T10:37:28.117Z,892.79
2018-10-02T10:38:28.112Z,892.79
2018-10-02T10:39:28.093Z,892.75
2018-10-02T10:40:28.170Z,892.74
2018-10-02T10:41:28.067Z,892.80
2018-10-02T10:42:28.055Z,892.75
2018-10-02T10:43:28.048Z,892.77
2018-10-02T10:44:28.036Z,892.81
2018-10-02T10:45:28.040Z,892.76
2018-10-02T10:46:28.066Z,892.80
2018-10-02T10:47:28.012Z,892.86
2018-10-02T10:48:27.985Z,892.78
2018-10-02T10:49:27.977Z,892.85
2018-10-02T10:50:27.958Z,892.87
2018-10-02T10:51:27.939Z,892.87
2018-10-02T10:52:27.940Z,892.84
2018-10-02T10:53:27.932Z,892.87
2018-10-02T10:54:27.907Z,892.87
2018-10-02T10:55:27.899Z,892.85
2018-10-02T10:56:27.963Z,892.89
2018-10-02T10:57:27.875Z,892.84
2018-10-02T10:58:27.874Z,892.85
2018-10-02T10:59:27.852Z,892.89
2018-10-02T11:00:27.841Z,892.90
2018-10-02T11:01:27.829Z,892.86
2018-10-02T11:02:27.815Z,892.85
2018-10-02T11:03:27.807Z,892.82
2018-10-02T11:04:27.865Z,892.80
2018-10-02T11:05:27.786Z,892.80
2018-10-02T11:06:27.776Z,892.77
2018-10-02T11:07:27.765Z,892.79
2018-10-02T11:08:27.752Z,892.79
2018-10-02T11:09:27.808Z,892.83
2018-10-02T11:10:27.724Z,892.79
2018-10-02T11:11:27.719Z,892.80
2018-10-02T11:12:27.698Z,892.81
2018-10-02T11:13:27.693Z,892.82
2018-10-02T11:14:27.683Z,892.86
2018-10-02T11:15:27.669Z,892.82
2018-10-02T11:16:27.655Z,892.82
2018-10-02T11:17:27.649Z,892.80
2018-10-02T11:18:27.631Z,892.83
2018-10-02T11:19:27.641Z,892.79
2018-10-02T11:20:27.615Z,892.80
2018-10-02T11:21:27.606Z,892.76
2018-10-02T11:22:27.592Z,892.76
2018-10-02T11:23:27.582Z,892.78
2018-10-02T11:24:27.570Z,892.76
2018-10-02T11:25:27.671Z,892.80
2018-10-02T11:26:27.550Z,892.72
2018-10-02T11:27:27.538Z,892.74
2018-10-02T11:28:27.527Z,892.72
2018-10-02T11:29:27.514Z,892.77
2018-10-02T11:30:27.505Z,892.70
2018-10-02T11:31:27.513Z,892.74
2018-10-02T11:32:27.482Z,892.73
2018-10-02T11:33:27.474Z,892.75
2018-10-02T11:34:27.461Z,892.78
2018-10-02T11:35:27.488Z,892.75
2018-10-02T11:36:27.443Z,892.73
2018-10-02T11:37:27.435Z,892.75
2018-10-02T11:38:27.423Z,892.72
2018-10-02T11:39:27.409Z,892.71
2018-10-02T11:40:27.399Z,892.72
2018-10-02T11:41:27.393Z,892.76
2018-10-02T11:42:27.375Z,892.75
2018-10-02T11:43:27.391Z,892.77
2018-10-02T11:44:27.490Z,892.80
2018-10-02T11:45:27.346Z,892.76
2018-10-02T11:46:27.330Z,892.78
2018-10-02T11:47:27.323Z,892.76
2018-10-02T11:48:27.304Z,892.71
2018-10-02T11:49:27.337Z,892.70
2018-10-02T11:50:27.285Z,892.69
2018-10-02T11:51:27.273Z,892.68
2018-10-02T11:52:27.269Z,892.67
2018-10-02T11:53:27.256Z,892.69
2018-10-02T11:54:27.243Z,892.66
2018-10-02T11:55:27.330Z,892.63
2018-10-02T11:56:27.289Z,892.67
2018-10-02T11:57:27.245Z,892.72
2018-10-02T11:58:27.202Z,892.73
2018-10-02T11:59:27.195Z,892.75
2018-10-02T12:00:27.229Z,892.76
2018-10-02T12:01:27.238Z,892.75
2018-10-02T12:02:27.222Z,892.71
2018-10-02T12:03:27.289Z,892.74
2018-10-02T12:04:27.137Z,892.71
2018-10-02T12:05:27.132Z,892.76
2018-10-02T12:06:27.114Z,892.73
2018-10-02T12:07:27.105Z,892.70
2018-10-02T12:08:27.100Z,892.67
2018-10-02T12:09:27.090Z,892.69
2018-10-02T12:10:27.071Z,892.66
2018-10-02T12:11:27.129Z,892.59
2018-10-02T12:12:27.049Z,892.60
2018-10-02T12:13:27.096Z,892.56
2018-10-02T12:14:27.298Z,892.49
2018-10-02T12:15:27.023Z,892.52
2018-10-02T12:16:27.012Z,892.48
2018-10-02T12:17:27.001Z,892.48
2018-10-02T12:18:26.992Z,892.55
2018-10-02T12:19:27.055Z,892.50
2018-10-02T12:20:26.974Z,892.47
2018-10-02T12:21:26.961Z,892.41
2018-10-02T12:22:26.949Z,892.45
2018-10-02T12:23:26.960Z,892.45
2018-10-02T12:24:26.934Z,892.42
2018-10-02T12:25:26.924Z,892.42
2018-10-02T12:26:26.908Z,892.40
2018-10-02T12:27:26.904Z,892.42
2018-10-02T12:28:26.886Z,892.47